sensor_id;sensor_type;location;lat;lon;timestamp;pressure;altitude;pressure_sealevel;temperature;humidity
7836;BME280;3963;42.658;23.298;2022-07-01T00:00:11;60950.81;;;21.80;84.96
7836;BME280;3963;42.658;23.298;2022-07-01T00:02:38;60972.63;;;21.86;84.30
7836;BME280;3963;42.658;23.298;2022-07-01T00:05:05;60988.00;;;21.88;84.25
7836;BME280;3963;42.658;23.298;2022-07-01T00:07:32;60945.34;;;21.90;84.33
7836;BME280;3963;42.658;23.298;2022-07-01T00:09:59;60936.00;;;21.79;85.63
7836;BME280;3963;42.658;23.298;2022-07-01T00:12:26;60937.38;;;21.73;87.70
7836;BME280;3963;42.658;23.298;2022-07-01T00:14:53;60927.34;;;21.56;90.10
7836;BME280;3963;42.658;23.298;2022-07-01T00:17:21;60897.50;;;21.63;86.79
7836;BME280;3963;42.658;23.298;2022-07-01T00:19:48;60912.41;;;21.67;86.04
7836;BME280;3963;42.658;23.298;2022-07-01T00:22:16;60906.66;;;21.69;85.79
7836;BME280;3963;42.658;23.298;2022-07-01T00:24:43;60934.88;;;21.61;86.49
7836;BME280;3963;42.658;23.298;2022-07-01T00:27:10;60901.44;;;21.54;86.67
7836;BME280;3963;42.658;23.298;2022-07-01T00:29:38;60910.91;;;21.53;87.22
7836;BME280;3963;42.658;23.298;2022-07-01T00:32:05;60904.28;;;21.44;87.78
7836;BME280;3963;42.658;23.298;2022-07-01T00:34:34;60887.94;;;21.44;87.89
7836;BME280;3963;42.658;23.298;2022-07-01T00:37:02;60879.00;;;21.45;87.77
7836;BME280;3963;42.658;23.298;2022-07-01T00:39:29;60895.03;;;21.36;91.77
7836;BME280;3963;42.658;23.298;2022-07-01T00:41:58;60872.13;;;21.12;91.85
7836;BME280;3963;42.658;23.298;2022-07-01T00:44:27;60837.81;;;20.95;95.23
7836;BME280;3963;42.658;23.298;2022-07-01T00:46:55;60830.34;;;20.76;97.66
7836;BME280;3963;42.658;23.298;2022-07-01T00:49:23;60801.75;;;20.71;98.79
7836;BME280;3963;42.658;23.298;2022-07-01T00:51:53;60793.41;;;20.73;99.29
7836;BME280;3963;42.658;23.298;2022-07-01T00:54:20;60799.75;;;20.74;99.14
7836;BME280;3963;42.658;23.298;2022-07-01T00:56:48;60813.72;;;20.82;99.07
7836;BME280;3963;42.658;23.298;2022-07-01T00:59:15;60802.19;;;20.84;98.67
7836;BME280;3963;42.658;23.298;2022-07-01T01:01:42;60840.22;;;20.87;100.00
7836;BME280;3963;42.658;23.298;2022-07-01T01:04:09;60807.38;;;20.81;100.00
7836;BME280;3963;42.658;23.298;2022-07-01T01:06:36;60786.34;;;20.67;100.00
7836;BME280;3963;42.658;23.298;2022-07-01T01:09:04;60763.78;;;20.53;100.00
7836;BME280;3963;42.658;23.298;2022-07-01T01:11:32;60745.56;;;20.43;100.00
7836;BME280;3963;42.658;23.298;2022-07-01T01:13:59;60729.66;;;20.24;100.00
7836;BME280;3963;42.658;23.298;2022-07-01T01:16:26;60714.34;;;20.22;100.00
7836;BME280;3963;42.658;23.298;2022-07-01T01:18:53;60713.72;;;20.19;100.00
7836;BME280;3963;42.658;23.298;2022-07-01T01:21:23;60745.53;;;20.26;100.00
7836;BME280;3963;42.658;23.298;2022-07-01T01:23:50;60724.09;;;20.31;100.00
7836;BME280;3963;42.658;23.298;2022-07-01T01:26:18;60723.59;;;20.30;100.00
7836;BME280;3963;42.658;23.298;2022-07-01T01:28:45;60742.00;;;20.30;100.00
7836;BME280;3963;42.658;23.298;2022-07-01T01:31:14;60736.56;;;20.25;100.00
7836;BME280;3963;42.658;23.298;2022-07-01T01:33:41;60717.97;;;20.20;100.00
7836;BME280;3963;42.658;23.298;2022-07-01T01:36:08;60647.66;;;19.77;100.00
7836;BME280;3963;42.658;23.298;2022-07-01T01:38:36;60685.88;;;19.88;100.00
7836;BME280;3963;42.658;23.298;2022-07-01T01:41:04;60683.88;;;19.91;100.00
7836;BME280;3963;42.658;23.298;2022-07-01T01:43:31;60673.28;;;19.88;100.00
7836;BME280;3963;42.658;23.298;2022-07-01T01:46:01;60700.75;;;19.92;100.00
7836;BME280;3963;42.658;23.298;2022-07-01T01:48:28;60651.38;;;19.95;100.00
7836;BME280;3963;42.658;23.298;2022-07-01T01:50:56;60693.63;;;20.00;100.00
7836;BME280;3963;42.658;23.298;2022-07-01T01:53:23;60715.84;;;20.04;100.00
7836;BME280;3963;42.658;23.298;2022-07-01T01:55:52;60687.91;;;20.02;100.00
7836;BME280;3963;42.658;23.298;2022-07-01T01:58:19;60671.09;;;19.86;100.00
7836;BME280;3963;42.658;23.298;2022-07-01T02:00:46;60708.09;;;19.92;100.00
7836;BME280;3963;42.658;23.298;2022-07-01T02:03:13;60684.63;;;19.82;100.00
7836;BME280;3963;42.658;23.298;2022-07-01T02:05:40;60620.28;;;19.76;100.00
7836;BME280;3963;42.658;23.298;2022-07-01T02:08:07;60660.94;;;19.65;100.00
7836;BME280;3963;42.658;23.298;2022-07-01T02:10:34;60649.00;;;19.54;100.00
7836;BME280;3963;42.658;23.298;2022-07-01T02:13:02;60659.34;;;19.49;100.00
7836;BME280;3963;42.658;23.298;2022-07-01T02:15:29;60622.56;;;19.49;100.00
7836;BME280;3963;42.658;23.298;2022-07-01T02:17:57;60626.00;;;19.42;100.00
7836;BME280;3963;42.658;23.298;2022-07-01T02:20:24;60599.19;;;19.42;100.00
7836;BME280;3963;42.658;23.298;2022-07-01T02:22:51;60623.63;;;19.50;100.00
7836;BME280;3963;42.658;23.298;2022-07-01T02:25:18;60619.84;;;19.46;100.00
7836;BME280;3963;42.658;23.298;2022-07-01T02:27:46;60637.59;;;19.43;100.00
7836;BME280;3963;42.658;23.298;2022-07-01T02:30:14;60575.59;;;19.27;100.00
7836;BME280;3963;42.658;23.298;2022-07-01T02:32:41;60590.94;;;19.14;100.00
7836;BME280;3963;42.658;23.298;2022-07-01T02:35:09;60591.84;;;19.10;100.00
7836;BME280;3963;42.658;23.298;2022-07-01T02:37:36;60598.50;;;19.21;100.00
7836;BME280;3963;42.658;23.298;2022-07-01T02:40:05;60597.25;;;19.15;100.00
7836;BME280;3963;42.658;23.298;2022-07-01T02:42:32;60590.09;;;19.21;100.00
7836;BME280;3963;42.658;23.298;2022-07-01T02:45:03;60586.91;;;19.20;100.00
7836;BME280;3963;42.658;23.298;2022-07-01T02:47:32;60602.78;;;19.23;100.00
7836;BME280;3963;42.658;23.298;2022-07-01T02:50:00;60600.91;;;19.14;100.00
7836;BME280;3963;42.658;23.298;2022-07-01T02:52:27;60570.75;;;19.08;100.00
7836;BME280;3963;42.658;23.298;2022-07-01T02:54:54;60583.19;;;19.02;100.00
7836;BME280;3963;42.658;23.298;2022-07-01T02:57:22;60572.50;;;18.97;100.00
7836;BME280;3963;42.658;23.298;2022-07-01T02:59:49;60563.72;;;19.01;100.00
7836;BME280;3963;42.658;23.298;2022-07-01T03:02:17;60551.22;;;19.04;100.00
7836;BME280;3963;42.658;23.298;2022-07-01T03:04:47;60575.31;;;19.02;100.00
7836;BME280;3963;42.658;23.298;2022-07-01T03:07:15;60576.69;;;18.96;100.00
7836;BME280;3963;42.658;23.298;2022-07-01T03:09:42;60554.75;;;19.00;100.00
7836;BME280;3963;42.658;23.298;2022-07-01T03:12:10;60554.59;;;18.95;100.00
7836;BME280;3963;42.658;23.298;2022-07-01T03:14:54;60552.78;;;18.89;100.00
7836;BME280;3963;42.658;23.298;2022-07-01T03:17:21;60530.84;;;18.75;100.00
7836;BME280;3963;42.658;23.298;2022-07-01T03:19:51;60548.13;;;18.74;100.00
7836;BME280;3963;42.658;23.298;2022-07-01T03:22:19;60514.56;;;18.75;100.00
7836;BME280;3963;42.658;23.298;2022-07-01T03:24:45;60556.25;;;18.82;100.00
7836;BME280;3963;42.658;23.298;2022-07-01T03:27:12;60537.44;;;18.84;100.00
7836;BME280;3963;42.658;23.298;2022-07-01T03:29:39;60518.81;;;18.76;100.00
7836;BME280;3963;42.658;23.298;2022-07-01T03:32:07;60529.72;;;18.89;100.00
7836;BME280;3963;42.658;23.298;2022-07-01T03:34:34;60530.34;;;18.92;100.00
7836;BME280;3963;42.658;23.298;2022-07-01T03:37:03;60552.78;;;18.89;100.00
7836;BME280;3963;42.658;23.298;2022-07-01T03:39:30;60541.75;;;18.88;100.00
7836;BME280;3963;42.658;23.298;2022-07-01T03:41:57;60533.88;;;18.88;100.00
7836;BME280;3963;42.658;23.298;2022-07-01T03:44:24;60518.75;;;18.91;100.00
7836;BME280;3963;42.658;23.298;2022-07-01T03:46:52;60542.78;;;19.04;100.00
7836;BME280;3963;42.658;23.298;2022-07-01T03:49:19;60551.06;;;18.99;100.00
7836;BME280;3963;42.658;23.298;2022-07-01T03:51:46;60578.56;;;19.05;100.00
7836;BME280;3963;42.658;23.298;2022-07-01T03:54:15;60593.66;;;19.17;100.00
7836;BME280;3963;42.658;23.298;2022-07-01T03:56:58;60596.19;;;19.14;100.00
7836;BME280;3963;42.658;23.298;2022-07-01T03:59:27;60584.41;;;19.23;100.00
7836;BME280;3963;42.658;23.298;2022-07-01T04:01:54;60634.69;;;19.35;100.00
7836;BME280;3963;42.658;23.298;2022-07-01T04:04:22;60603.28;;;19.38;100.00
7836;BME280;3963;42.658;23.298;2022-07-01T04:06:49;60639.41;;;19.50;100.00
7836;BME280;3963;42.658;23.298;2022-07-01T04:09:18;60631.22;;;19.57;100.00
7836;BME280;3963;42.658;23.298;2022-07-01T04:11:46;60570.91;;;19.45;100.00
7836;BME280;3963;42.658;23.298;2022-07-01T04:14:14;60684.75;;;19.70;100.00
7836;BME280;3963;42.658;23.298;2022-07-01T04:16:42;60653.63;;;19.82;100.00
7836;BME280;3963;42.658;23.298;2022-07-01T04:19:10;60688.91;;;20.01;100.00
7836;BME280;3963;42.658;23.298;2022-07-01T04:21:38;60707.97;;;20.04;100.00
7836;BME280;3963;42.658;23.298;2022-07-01T04:24:23;60738.28;;;20.29;100.00
7836;BME280;3963;42.658;23.298;2022-07-01T04:26:51;60761.38;;;20.43;100.00
7836;BME280;3963;42.658;23.298;2022-07-01T04:29:18;60765.59;;;20.60;100.00
7836;BME280;3963;42.658;23.298;2022-07-01T04:31:45;60799.06;;;20.69;100.00
7836;BME280;3963;42.658;23.298;2022-07-01T04:34:13;60816.41;;;20.85;100.00
7836;BME280;3963;42.658;23.298;2022-07-01T04:36:40;60857.28;;;20.93;100.00
7836;BME280;3963;42.658;23.298;2022-07-01T04:39:06;60803.72;;;20.83;100.00
7836;BME280;3963;42.658;23.298;2022-07-01T04:41:35;60814.81;;;20.83;100.00
7836;BME280;3963;42.658;23.298;2022-07-01T04:44:20;60810.78;;;20.89;100.00
7836;BME280;3963;42.658;23.298;2022-07-01T04:46:47;60840.72;;;21.03;100.00
7836;BME280;3963;42.658;23.298;2022-07-01T04:49:14;60860.50;;;21.11;100.00
7836;BME280;3963;42.658;23.298;2022-07-01T04:51:41;60835.31;;;21.15;100.00
7836;BME280;3963;42.658;23.298;2022-07-01T04:54:08;60842.88;;;21.05;100.00
7836;BME280;3963;42.658;23.298;2022-07-01T04:56:37;60857.03;;;21.18;100.00
7836;BME280;3963;42.658;23.298;2022-07-01T04:59:04;60881.53;;;21.26;100.00
7836;BME280;3963;42.658;23.298;2022-07-01T05:01:32;60879.59;;;21.14;100.00
7836;BME280;3963;42.658;23.298;2022-07-01T05:03:59;60892.16;;;21.28;100.00
7836;BME280;3963;42.658;23.298;2022-07-01T05:06:26;60899.78;;;21.35;100.00
7836;BME280;3963;42.658;23.298;2022-07-01T05:08:53;60896.22;;;21.39;100.00
7836;BME280;3963;42.658;23.298;2022-07-01T05:11:20;60895.84;;;21.44;100.00
7836;BME280;3963;42.658;23.298;2022-07-01T05:13:48;60917.00;;;21.46;100.00
7836;BME280;3963;42.658;23.298;2022-07-01T05:16:15;60928.91;;;21.55;100.00
7836;BME280;3963;42.658;23.298;2022-07-01T05:18:42;60935.03;;;21.66;100.00
7836;BME280;3963;42.658;23.298;2022-07-01T05:21:27;60949.19;;;21.79;100.00
7836;BME280;3963;42.658;23.298;2022-07-01T05:24:11;60983.63;;;21.84;100.00
7836;BME280;3963;42.658;23.298;2022-07-01T05:26:38;60990.47;;;21.83;100.00
7836;BME280;3963;42.658;23.298;2022-07-01T05:29:06;60999.53;;;22.01;100.00
7836;BME280;3963;42.658;23.298;2022-07-01T05:31:34;61016.25;;;22.12;100.00
7836;BME280;3963;42.658;23.298;2022-07-01T05:34:01;61016.63;;;22.07;100.00
7836;BME280;3963;42.658;23.298;2022-07-01T05:36:28;61046.28;;;22.10;100.00
7836;BME280;3963;42.658;23.298;2022-07-01T05:38:55;61028.81;;;22.09;100.00
7836;BME280;3963;42.658;23.298;2022-07-01T05:41:21;61040.88;;;22.22;98.77
7836;BME280;3963;42.658;23.298;2022-07-01T05:43:48;61043.28;;;22.32;96.88
7836;BME280;3963;42.658;23.298;2022-07-01T05:46:16;61036.94;;;22.31;96.54
7836;BME280;3963;42.658;23.298;2022-07-01T05:48:43;61062.59;;;22.40;96.35
7836;BME280;3963;42.658;23.298;2022-07-01T05:51:10;61043.25;;;22.46;95.71
7836;BME280;3963;42.658;23.298;2022-07-01T05:53:37;61045.13;;;22.55;95.89
7836;BME280;3963;42.658;23.298;2022-07-01T05:56:04;61061.06;;;22.58;94.39
7836;BME280;3963;42.658;23.298;2022-07-01T06:01:53;61085.34;;;22.73;92.25
7836;BME280;3963;42.658;23.298;2022-07-01T06:04:20;61096.72;;;22.81;91.55
7836;BME280;3963;42.658;23.298;2022-07-01T06:06:47;61101.44;;;22.81;91.15
7836;BME280;3963;42.658;23.298;2022-07-01T06:09:14;61135.28;;;22.97;91.43
7836;BME280;3963;42.658;23.298;2022-07-01T06:11:41;61163.31;;;23.13;89.55
7836;BME280;3963;42.658;23.298;2022-07-01T06:14:07;61186.81;;;23.21;88.58
7836;BME280;3963;42.658;23.298;2022-07-01T06:16:34;61220.41;;;23.30;88.19
7836;BME280;3963;42.658;23.298;2022-07-01T06:19:03;61144.28;;;23.30;88.15
7836;BME280;3963;42.658;23.298;2022-07-01T06:21:31;61207.63;;;23.42;87.88
7836;BME280;3963;42.658;23.298;2022-07-01T06:23:58;61229.78;;;23.55;87.75
7836;BME280;3963;42.658;23.298;2022-07-01T06:26:25;61265.78;;;23.89;87.88
7836;BME280;3963;42.658;23.298;2022-07-01T06:28:52;61333.09;;;24.07;86.88
7836;BME280;3963;42.658;23.298;2022-07-01T06:34:42;61393.97;;;24.68;81.17
7836;BME280;3963;42.658;23.298;2022-07-01T06:37:09;61479.41;;;25.17;77.24
7836;BME280;3963;42.658;23.298;2022-07-01T06:42:57;61646.47;;;26.22;71.18
7836;BME280;3963;42.658;23.298;2022-07-01T06:48:46;61768.22;;;27.00;67.47
7836;BME280;3963;42.658;23.298;2022-07-01T06:51:15;61821.75;;;27.25;65.16
7836;BME280;3963;42.658;23.298;2022-07-01T06:53:41;61869.94;;;27.64;63.84
7836;BME280;3963;42.658;23.298;2022-07-01T06:56:10;61957.56;;;28.18;60.65
7836;BME280;3963;42.658;23.298;2022-07-01T06:58:37;62085.56;;;28.79;58.91
7836;BME280;3963;42.658;23.298;2022-07-01T07:01:04;62118.72;;;29.12;54.87
7836;BME280;3963;42.658;23.298;2022-07-01T07:03:31;62137.56;;;29.31;54.73
7836;BME280;3963;42.658;23.298;2022-07-01T07:05:58;62295.09;;;30.04;53.37
7836;BME280;3963;42.658;23.298;2022-07-01T07:08:27;62300.13;;;30.11;53.31
7836;BME280;3963;42.658;23.298;2022-07-01T07:10:54;62235.81;;;29.92;54.67
7836;BME280;3963;42.658;23.298;2022-07-01T07:13:20;62342.97;;;30.29;53.33
7836;BME280;3963;42.658;23.298;2022-07-01T07:15:47;62493.28;;;31.00;51.04
7836;BME280;3963;42.658;23.298;2022-07-01T07:18:15;62456.59;;;31.08;50.86
7836;BME280;3963;42.658;23.298;2022-07-01T07:20:41;62582.22;;;31.59;49.28
7836;BME280;3963;42.658;23.298;2022-07-01T07:23:08;62558.09;;;31.44;49.45
7836;BME280;3963;42.658;23.298;2022-07-01T07:25:36;62657.53;;;31.96;48.16
7836;BME280;3963;42.658;23.298;2022-07-01T07:28:03;62540.53;;;31.33;49.40
7836;BME280;3963;42.658;23.298;2022-07-01T07:30:30;62576.84;;;31.59;48.08
7836;BME280;3963;42.658;23.298;2022-07-01T07:32:57;62647.19;;;32.06;47.18
7836;BME280;3963;42.658;23.298;2022-07-01T07:35:24;62689.34;;;32.15;45.58
7836;BME280;3963;42.658;23.298;2022-07-01T07:37:51;62721.19;;;32.34;45.43
7836;BME280;3963;42.658;23.298;2022-07-01T07:40:17;62853.47;;;32.98;43.84
7836;BME280;3963;42.658;23.298;2022-07-01T07:42:47;62993.31;;;33.57;42.70
7836;BME280;3963;42.658;23.298;2022-07-01T07:45:14;62938.50;;;33.44;42.03
7836;BME280;3963;42.658;23.298;2022-07-01T07:47:42;62983.31;;;33.77;41.25
7836;BME280;3963;42.658;23.298;2022-07-01T07:50:10;63020.31;;;33.88;40.55
7836;BME280;3963;42.658;23.298;2022-07-01T07:52:37;63126.25;;;34.14;40.58
7836;BME280;3963;42.658;23.298;2022-07-01T07:55:05;63137.34;;;34.51;41.35
7836;BME280;3963;42.658;23.298;2022-07-01T07:57:32;63331.69;;;35.14;39.00
7836;BME280;3963;42.658;23.298;2022-07-01T08:00:01;63312.81;;;34.87;38.61
7836;BME280;3963;42.658;23.298;2022-07-01T08:02:29;63184.00;;;34.59;39.42
7836;BME280;3963;42.658;23.298;2022-07-01T08:04:56;63321.06;;;35.19;38.98
7836;BME280;3963;42.658;23.298;2022-07-01T08:07:22;63305.63;;;35.10;37.89
7836;BME280;3963;42.658;23.298;2022-07-01T08:09:49;63437.84;;;35.66;37.11
7836;BME280;3963;42.658;23.298;2022-07-01T08:12:16;63311.88;;;35.18;37.98
7836;BME280;3963;42.658;23.298;2022-07-01T08:14:43;63372.31;;;35.19;37.72
7836;BME280;3963;42.658;23.298;2022-07-01T08:17:11;63539.94;;;35.95;36.59
7836;BME280;3963;42.658;23.298;2022-07-01T08:19:38;63345.63;;;35.12;37.68
7836;BME280;3963;42.658;23.298;2022-07-01T08:22:05;63168.91;;;34.45;39.70
7836;BME280;3963;42.658;23.298;2022-07-01T08:24:32;63330.16;;;35.03;39.17
7836;BME280;3963;42.658;23.298;2022-07-01T08:27:00;63368.31;;;35.13;38.49
7836;BME280;3963;42.658;23.298;2022-07-01T08:29:27;63329.22;;;35.07;38.74
7836;BME280;3963;42.658;23.298;2022-07-01T08:31:54;63278.06;;;34.95;39.48
7836;BME280;3963;42.658;23.298;2022-07-01T08:34:22;63461.81;;;35.85;37.38
7836;BME280;3963;42.658;23.298;2022-07-01T08:36:49;63410.25;;;35.51;38.13
7836;BME280;3963;42.658;23.298;2022-07-01T08:39:16;63560.53;;;36.23;36.72
7836;BME280;3963;42.658;23.298;2022-07-01T08:41:42;63484.53;;;35.86;36.68
7836;BME280;3963;42.658;23.298;2022-07-01T08:44:09;63314.06;;;35.06;38.22
7836;BME280;3963;42.658;23.298;2022-07-01T08:46:36;63482.84;;;35.85;36.55
7836;BME280;3963;42.658;23.298;2022-07-01T08:49:03;63458.25;;;35.77;35.66
7836;BME280;3963;42.658;23.298;2022-07-01T08:51:32;63495.31;;;36.13;34.76
7836;BME280;3963;42.658;23.298;2022-07-01T08:53:59;63616.41;;;36.69;33.65
7836;BME280;3963;42.658;23.298;2022-07-01T08:56:26;63798.97;;;37.16;32.04
7836;BME280;3963;42.658;23.298;2022-07-01T08:59:11;64070.22;;;38.04;30.12
7836;BME280;3963;42.658;23.298;2022-07-01T09:01:38;64181.75;;;38.62;29.65
7836;BME280;3963;42.658;23.298;2022-07-01T09:04:16;64174.06;;;38.72;30.71
7836;BME280;3963;42.658;23.298;2022-07-01T09:06:45;64301.34;;;39.04;30.31
7836;BME280;3963;42.658;23.298;2022-07-01T09:09:15;64169.44;;;38.54;29.04
7836;BME280;3963;42.658;23.298;2022-07-01T09:11:46;64005.44;;;37.97;29.26
7836;BME280;3963;42.658;23.298;2022-07-01T09:14:19;64006.56;;;37.98;29.48
7836;BME280;3963;42.658;23.298;2022-07-01T09:16:48;63771.81;;;37.13;30.80
7836;BME280;3963;42.658;23.298;2022-07-01T09:19:16;63897.88;;;37.63;30.52
7836;BME280;3963;42.658;23.298;2022-07-01T09:21:49;64014.13;;;37.97;29.79
7836;BME280;3963;42.658;23.298;2022-07-01T09:24:25;64163.25;;;38.48;28.63
7836;BME280;3963;42.658;23.298;2022-07-01T09:26:57;64139.06;;;38.53;29.05
7836;BME280;3963;42.658;23.298;2022-07-01T09:29:28;64087.56;;;38.41;30.02
7836;BME280;3963;42.658;23.298;2022-07-01T09:31:57;64232.72;;;38.86;27.66
7836;BME280;3963;42.658;23.298;2022-07-01T09:34:24;64357.34;;;39.30;27.17
7836;BME280;3963;42.658;23.298;2022-07-01T09:36:53;64300.63;;;39.13;27.79
7836;BME280;3963;42.658;23.298;2022-07-01T09:39:21;64295.56;;;39.08;27.35
7836;BME280;3963;42.658;23.298;2022-07-01T09:41:47;64267.63;;;39.15;27.05
7836;BME280;3963;42.658;23.298;2022-07-01T09:44:14;64161.84;;;38.66;27.02
7836;BME280;3963;42.658;23.298;2022-07-01T09:46:52;63876.13;;;37.37;28.59
7836;BME280;3963;42.658;23.298;2022-07-01T09:49:19;63815.34;;;37.19;28.93
7836;BME280;3963;42.658;23.298;2022-07-01T09:51:45;64110.38;;;38.42;27.80
7836;BME280;3963;42.658;23.298;2022-07-01T09:54:16;64302.47;;;39.17;26.61
7836;BME280;3963;42.658;23.298;2022-07-01T09:56:43;64336.41;;;39.47;26.21
7836;BME280;3963;42.658;23.298;2022-07-01T09:59:10;64284.34;;;39.13;26.79
7836;BME280;3963;42.658;23.298;2022-07-01T10:01:38;64372.38;;;39.38;25.31
7836;BME280;3963;42.658;23.298;2022-07-01T10:04:07;64483.41;;;39.67;25.94
7836;BME280;3963;42.658;23.298;2022-07-01T10:09:54;64226.16;;;38.85;24.38
7836;BME280;3963;42.658;23.298;2022-07-01T10:12:37;64264.47;;;39.05;23.10
7836;BME280;3963;42.658;23.298;2022-07-01T10:15:07;64283.13;;;39.21;23.33
7836;BME280;3963;42.658;23.298;2022-07-01T10:17:36;64213.41;;;38.79;23.56
7836;BME280;3963;42.658;23.298;2022-07-01T10:20:08;64069.75;;;38.18;24.55
7836;BME280;3963;42.658;23.298;2022-07-01T10:22:36;63954.78;;;37.90;25.42
7836;BME280;3963;42.658;23.298;2022-07-01T10:25:33;63976.31;;;38.00;24.34
7836;BME280;3963;42.658;23.298;2022-07-01T10:28:24;64007.44;;;38.06;23.85
7836;BME280;3963;42.658;23.298;2022-07-01T10:30:56;64088.03;;;38.15;23.91
7836;BME280;3963;42.658;23.298;2022-07-01T10:33:42;64182.31;;;38.87;22.97
7836;BME280;3963;42.658;23.298;2022-07-01T10:36:16;64506.66;;;40.00;22.70
7836;BME280;3963;42.658;23.298;2022-07-01T10:39:14;64639.72;;;40.43;21.03
7836;BME280;3963;42.658;23.298;2022-07-01T10:41:57;64545.38;;;40.03;21.09
7836;BME280;3963;42.658;23.298;2022-07-01T10:44:25;64619.22;;;40.34;21.13
7836;BME280;3963;42.658;23.298;2022-07-01T10:46:53;64590.63;;;40.16;20.95
7836;BME280;3963;42.658;23.298;2022-07-01T10:49:56;64639.28;;;40.45;20.77
7836;BME280;3963;42.658;23.298;2022-07-01T10:52:24;64691.19;;;40.50;19.85
7836;BME280;3963;42.658;23.298;2022-07-01T10:54:53;64896.84;;;41.26;18.91
7836;BME280;3963;42.658;23.298;2022-07-01T10:57:33;64964.41;;;41.60;18.15
7836;BME280;3963;42.658;23.298;2022-07-01T11:00:29;64726.06;;;40.74;17.27
7836;BME280;3963;42.658;23.298;2022-07-01T11:03:12;64769.16;;;40.76;18.30
7836;BME280;3963;42.658;23.298;2022-07-01T11:05:40;64792.88;;;40.82;17.57
7836;BME280;3963;42.658;23.298;2022-07-01T11:08:08;64710.75;;;40.72;17.85
7836;BME280;3963;42.658;23.298;2022-07-01T11:10:35;64516.28;;;39.96;18.69
7836;BME280;3963;42.658;23.298;2022-07-01T11:13:03;64388.09;;;39.50;19.67
7836;BME280;3963;42.658;23.298;2022-07-01T11:15:31;64272.94;;;39.12;19.74
7836;BME280;3963;42.658;23.298;2022-07-01T11:17:58;64127.31;;;38.45;18.90
7836;BME280;3963;42.658;23.298;2022-07-01T11:20:29;63996.31;;;37.98;20.70
7836;BME280;3963;42.658;23.298;2022-07-01T11:22:56;63769.69;;;37.14;20.43
7836;BME280;3963;42.658;23.298;2022-07-01T11:25:23;63714.47;;;36.74;21.52
7836;BME280;3963;42.658;23.298;2022-07-01T11:27:51;63562.44;;;36.44;22.00
7836;BME280;3963;42.658;23.298;2022-07-01T11:30:21;63649.25;;;36.52;22.57
7836;BME280;3963;42.658;23.298;2022-07-01T11:32:50;63576.78;;;36.38;23.47
7836;BME280;3963;42.658;23.298;2022-07-01T11:35:19;63502.19;;;36.10;22.21
7836;BME280;3963;42.658;23.298;2022-07-01T11:38:05;63505.50;;;35.98;22.90
7836;BME280;3963;42.658;23.298;2022-07-01T11:40:50;63518.81;;;36.20;23.03
7836;BME280;3963;42.658;23.298;2022-07-01T11:43:18;63639.94;;;36.36;23.29
7836;BME280;3963;42.658;23.298;2022-07-01T11:45:47;63533.91;;;36.33;22.51
7836;BME280;3963;42.658;23.298;2022-07-01T11:48:31;63372.34;;;35.75;22.94
7836;BME280;3963;42.658;23.298;2022-07-01T11:51:00;63354.97;;;35.30;22.31
7836;BME280;3963;42.658;23.298;2022-07-01T11:53:28;63267.66;;;34.90;23.75
7836;BME280;3963;42.658;23.298;2022-07-01T11:55:55;63185.22;;;34.77;24.74
7836;BME280;3963;42.658;23.298;2022-07-01T11:58:22;63173.13;;;34.71;23.98
7836;BME280;3963;42.658;23.298;2022-07-01T12:00:51;63078.38;;;34.29;23.77
7836;BME280;3963;42.658;23.298;2022-07-01T12:03:30;63127.69;;;34.52;23.42
7836;BME280;3963;42.658;23.298;2022-07-01T12:05:57;63169.69;;;34.65;23.18
7836;BME280;3963;42.658;23.298;2022-07-01T12:08:25;63148.50;;;34.61;23.53
7836;BME280;3963;42.658;23.298;2022-07-01T12:10:52;63145.16;;;34.58;24.04
7836;BME280;3963;42.658;23.298;2022-07-01T12:13:23;63114.13;;;34.49;24.77
7836;BME280;3963;42.658;23.298;2022-07-01T12:15:51;63124.41;;;34.36;22.02
7836;BME280;3963;42.658;23.298;2022-07-01T12:18:19;63102.78;;;34.19;22.30
7836;BME280;3963;42.658;23.298;2022-07-01T12:20:50;63098.88;;;34.16;24.71
7836;BME280;3963;42.658;23.298;2022-07-01T12:23:17;63013.81;;;34.02;24.61
7836;BME280;3963;42.658;23.298;2022-07-01T12:25:48;63062.09;;;34.12;24.54
7836;BME280;3963;42.658;23.298;2022-07-01T12:28:32;63027.75;;;34.15;22.66
7836;BME280;3963;42.658;23.298;2022-07-01T12:31:03;63006.88;;;33.74;21.35
7836;BME280;3963;42.658;23.298;2022-07-01T12:33:32;62968.06;;;33.58;22.38
7836;BME280;3963;42.658;23.298;2022-07-01T12:36:01;62895.66;;;33.49;23.26
7836;BME280;3963;42.658;23.298;2022-07-01T12:38:28;62882.31;;;33.22;25.93
7836;BME280;3963;42.658;23.298;2022-07-01T12:40:56;62842.09;;;33.10;26.73
7836;BME280;3963;42.658;23.298;2022-07-01T12:43:25;62835.06;;;33.08;27.52
7836;BME280;3963;42.658;23.298;2022-07-01T12:45:54;62852.56;;;33.02;26.56
7836;BME280;3963;42.658;23.298;2022-07-01T12:48:23;62760.41;;;32.79;26.96
7836;BME280;3963;42.658;23.298;2022-07-01T12:50:52;62765.16;;;32.76;28.83
7836;BME280;3963;42.658;23.298;2022-07-01T12:53:21;62728.75;;;32.65;28.78
7836;BME280;3963;42.658;23.298;2022-07-01T12:55:50;62747.81;;;32.73;30.36
7836;BME280;3963;42.658;23.298;2022-07-01T12:58:18;62728.63;;;32.77;29.79
7836;BME280;3963;42.658;23.298;2022-07-01T13:00:48;62807.63;;;32.93;27.69
7836;BME280;3963;42.658;23.298;2022-07-01T13:03:18;62808.53;;;33.04;28.18
7836;BME280;3963;42.658;23.298;2022-07-01T13:05:46;62874.06;;;33.31;27.50
7836;BME280;3963;42.658;23.298;2022-07-01T13:08:13;62873.31;;;33.40;28.54
7836;BME280;3963;42.658;23.298;2022-07-01T13:10:41;62913.56;;;33.53;25.32
7836;BME280;3963;42.658;23.298;2022-07-01T13:13:08;62911.88;;;33.51;28.15
7836;BME280;3963;42.658;23.298;2022-07-01T13:15:35;62923.47;;;33.45;33.09
7836;BME280;3963;42.658;23.298;2022-07-01T13:18:03;62859.06;;;33.18;35.53
7836;BME280;3963;42.658;23.298;2022-07-01T13:20:30;62805.97;;;32.92;36.76
7836;BME280;3963;42.658;23.298;2022-07-01T13:22:59;62797.47;;;32.79;36.50
7836;BME280;3963;42.658;23.298;2022-07-01T13:25:26;62745.78;;;32.76;35.52
7836;BME280;3963;42.658;23.298;2022-07-01T13:27:53;62727.09;;;32.49;35.76
7836;BME280;3963;42.658;23.298;2022-07-01T13:30:20;62709.03;;;32.55;36.49
7836;BME280;3963;42.658;23.298;2022-07-01T13:32:47;62728.19;;;32.65;35.07